Time,TemperatureF,DewpointF,PressureIn,WindDirection,WindDirectionDegrees,WindSpeedMPH,WindSpeedGustMPH,Humidity,HourlyPrecipIn,Conditions,Clouds,dailyrainin,SolarRadiationWatts/m^2,SoftwareType,DateUTC
2013-06-07 00:06:00,60.2,54.0,29.93,NE,47,0.0,0.0,81,0.00,,,0.00,0,weatherlink.com 1.10,2013-06-07 05:06:00,
2013-06-07 00:22:00,59.8,54.0,29.93,NE,47,0.0,0.0,82,0.00,,,0.00,0,weatherlink.com 1.10,2013-06-07 05:22:00,
2013-06-07 00:37:00,59.4,54.0,29.94,NE,47,0.0,0.0,83,0.00,,,0.00,0,weatherlink.com 1.10,2013-06-07 05:37:00,
2013-06-07 00:52:00,58.7,54.0,29.93,NE,47,0.0,0.0,84,0.00,,,0.00,0,weatherlink.com 1.10,2013-06-07 05:52:00,
2013-06-07 01:07:00,58.1,54.0,29.94,NE,47,0.0,0.0,85,0.00,,,0.00,0,weatherlink.com 1.10,2013-06-07 06:07:00,
2013-06-07 01:22:00,57.6,53.0,29.93,NE,47,0.0,0.0,85,0.00,,,0.00,0,weatherlink.com 1.10,2013-06-07 06:22:00,
2013-06-07 01:37:00,57.2,53.0,29.93,NE,47,0.0,0.0,87,0.00,,,0.00,0,weatherlink.com 1.10,2013-06-07 06:37:00,
2013-06-07 01:52:00,57.0,53.0,29.93,NE,47,0.0,0.0,87,0.00,,,0.00,0,weatherlink.com 1.10,2013-06-07 06:52:00,
2013-06-07 02:07:00,56.9,53.0,29.93,NE,47,0.0,1.0,88,0.00,,,0.00,0,weatherlink.com 1.10,2013-06-07 07:07:00,
2013-06-07 02:22:00,56.8,54.0,29.93,NE,47,0.0,1.0,89,0.00,,,0.00,0,weatherlink.com 1.10,2013-06-07 07:22:00,
2013-06-07 02:37:00,56.5,53.0,29.93,NE,47,0.0,0.0,89,0.00,,,0.00,0,weatherlink.com 1.10,2013-06-07 07:37:00,
2013-06-07 02:52:00,55.9,53.0,29.93,NE,47,0.0,2.0,89,0.00,,,0.00,0,weatherlink.com 1.10,2013-06-07 07:52:00,
2013-06-07 03:07:00,55.7,53.0,29.93,NE,47,0.0,1.0,90,0.00,,,0.00,0,weatherlink.com 1.10,2013-06-07 08:07:00,
2013-06-07 03:22:00,55.3,53.0,29.93,NE,47,0.0,0.0,90,0.00,,,0.00,0,weatherlink.com 1.10,2013-06-07 08:22:00,
2013-06-07 03:37:00,55.1,52.0,29.93,NE,47,0.0,0.0,90,0.00,,,0.00,0,weatherlink.com 1.10,2013-06-07 08:37:00,
2013-06-07 03:52:00,54.8,52.0,29.94,NE,47,0.0,1.0,91,0.00,,,0.00,0,weatherlink.com 1.10,2013-06-07 08:52:00,
2013-06-07 04:07:00,54.4,52.0,29.94,NE,47,0.0,0.0,91,0.00,,,0.00,0,weatherlink.com 1.10,2013-06-07 09:07:00,
2013-06-07 04:22:00,54.2,52.0,29.94,NE,47,0.0,1.0,91,0.00,,,0.00,0,weatherlink.com 1.10,2013-06-07 09:22:00,
2013-06-07 04:37:00,54.0,52.0,29.94,NE,47,0.0,0.0,91,0.00,,,0.00,0,weatherlink.com 1.10,2013-06-07 09:37:00,
2013-06-07 04:52:00,54.0,52.0,29.95,NE,47,0.0,0.0,91,0.00,,,0.00,0,weatherlink.com 1.10,2013-06-07 09:52:00,
2013-06-07 05:07:00,53.9,52.0,29.95,NE,47,0.0,0.0,92,0.00,,,0.00,0,weatherlink.com 1.10,2013-06-07 10:07:00,
2013-06-07 05:22:00,54.2,52.0,29.96,NE,47,0.0,1.0,92,0.00,,,0.00,0,weatherlink.com 1.10,2013-06-07 10:22:00,
2013-06-07 05:37:00,54.2,52.0,29.96,NE,47,0.0,1.0,92,0.00,,,0.00,0,weatherlink.com 1.10,2013-06-07 10:37:00,
2013-06-07 05:52:00,54.2,52.0,29.95,NE,47,0.0,0.0,92,0.00,,,0.00,0,weatherlink.com 1.10,2013-06-07 10:52:00,
2013-06-07 06:07:00,54.1,52.0,29.95,NE,47,0.0,0.0,92,0.00,,,0.00,9,weatherlink.com 1.10,2013-06-07 11:07:00,
2013-06-07 06:22:00,53.8,52.0,29.95,NE,47,0.0,0.0,92,0.00,,,0.00,18,weatherlink.com 1.10,2013-06-07 11:22:00,
2013-06-07 06:37:00,53.8,52.0,29.95,NE,47,0.0,1.0,93,0.00,,,0.00,28,weatherlink.com 1.10,2013-06-07 11:37:00,
2013-06-07 06:52:00,54.6,53.0,29.95,NE,47,0.0,1.0,93,0.00,,,0.00,83,weatherlink.com 1.10,2013-06-07 11:52:00,
2013-06-07 07:07:00,55.5,54.0,29.97,NNE,33,0.0,5.0,94,0.00,,,0.00,127,weatherlink.com 1.10,2013-06-07 12:07:00,
2013-06-07 07:22:00,56.8,55.0,29.97,NNE,17,2.0,6.0,94,0.00,,,0.00,169,weatherlink.com 1.10,2013-06-07 12:22:00,
2013-06-07 07:37:00,58.3,56.0,29.97,NNE,17,1.0,3.0,93,0.00,,,0.00,216,weatherlink.com 1.10,2013-06-07 12:37:00,
2013-06-07 07:52:00,59.8,58.0,29.97,NNE,17,1.0,3.0,92,0.00,,,0.00,257,weatherlink.com 1.10,2013-06-07 12:52:00,
2013-06-07 08:07:00,61.5,58.0,29.98,NNE,17,0.0,4.0,89,0.00,,,0.00,302,weatherlink.com 1.10,2013-06-07 13:07:00,
2013-06-07 08:23:00,62.7,58.0,29.98,NNE,17,2.0,3.0,83,0.00,,,0.00,346,weatherlink.com 1.10,2013-06-07 13:23:00,
2013-06-07 08:38:00,64.1,59.0,29.98,NNE,17,0.0,3.0,82,0.00,,,0.00,396,weatherlink.com 1.10,2013-06-07 13:38:00,
2013-06-07 08:53:00,65.8,59.0,29.98,NNE,17,0.0,2.0,79,0.00,,,0.00,434,weatherlink.com 1.10,2013-06-07 13:53:00,
2013-06-07 09:08:00,67.1,59.0,29.98,NNE,17,2.0,5.0,75,0.00,,,0.00,482,weatherlink.com 1.10,2013-06-07 14:08:00,
2013-06-07 09:23:00,67.8,59.0,29.98,NNE,17,0.0,3.0,74,0.00,,,0.00,548,weatherlink.com 1.10,2013-06-07 14:23:00,
2013-06-07 09:38:00,68.1,58.0,29.99,NNE,17,0.0,4.0,71,0.00,,,0.00,564,weatherlink.com 1.10,2013-06-07 14:38:00,
2013-06-07 09:53:00,69.4,61.0,29.98,NE,51,2.0,4.0,74,0.00,,,0.00,606,weatherlink.com 1.10,2013-06-07 14:53:00,
2013-06-07 10:08:00,70.2,60.0,29.98,NE,51,1.0,4.0,70,0.00,,,0.00,645,weatherlink.com 1.10,2013-06-07 15:08:00,
2013-06-07 10:23:00,70.0,59.0,29.98,NNE,19,0.0,5.0,69,0.00,,,0.00,733,weatherlink.com 1.10,2013-06-07 15:23:00,
2013-06-07 10:38:00,72.0,59.0,29.98,NNE,27,2.0,5.0,64,0.00,,,0.00,264,weatherlink.com 1.10,2013-06-07 15:38:00,
2013-06-07 10:53:00,70.8,57.0,29.98,North,355,1.0,7.0,62,0.00,,,0.00,740,weatherlink.com 1.10,2013-06-07 15:53:00,
2013-06-07 11:08:00,71.8,57.0,29.98,North,355,3.0,7.0,59,0.00,,,0.00,863,weatherlink.com 1.10,2013-06-07 16:08:00,
2013-06-07 11:23:00,70.9,55.0,29.98,NNE,32,4.0,7.0,57,0.00,,,0.00,285,weatherlink.com 1.10,2013-06-07 16:23:00,
2013-06-07 11:38:00,72.9,57.0,29.98,North,360,0.0,8.0,57,0.00,,,0.00,1014,weatherlink.com 1.10,2013-06-07 16:38:00,
2013-06-07 11:53:00,72.3,57.0,29.98,NNW,344,1.0,6.0,58,0.00,,,0.00,234,weatherlink.com 1.10,2013-06-07 16:53:00,
2013-06-07 12:08:00,73.8,57.0,29.97,NNW,335,1.0,6.0,56,0.00,,,0.00,1053,weatherlink.com 1.10,2013-06-07 17:08:00,
2013-06-07 12:23:00,73.6,55.0,29.97,NW,325,3.0,9.0,53,0.00,,,0.00,264,weatherlink.com 1.10,2013-06-07 17:23:00,
2013-06-07 12:38:00,72.6,57.0,29.96,North,9,3.0,6.0,58,0.00,,,0.00,988,weatherlink.com 1.10,2013-06-07 17:38:00,
2013-06-07 12:53:00,73.8,57.0,29.95,NNW,347,0.0,7.0,55,0.00,,,0.00,965,weatherlink.com 1.10,2013-06-07 17:53:00,
2013-06-07 13:08:00,74.5,56.0,29.95,NNW,331,7.0,7.0,52,0.00,,,0.00,1030,weatherlink.com 1.10,2013-06-07 18:08:00,
2013-06-07 13:23:00,74.9,55.0,29.95,North,350,5.0,8.0,50,0.00,,,0.00,1004,weatherlink.com 1.10,2013-06-07 18:23:00,
2013-06-07 13:54:00,72.8,56.0,29.94,NE,34,1.0,6.0,55,0.00,,,0.00,1239,weatherlink.com 1.10,2013-06-07 18:54:00,
2013-06-07 14:09:00,73.8,54.0,29.94,NNE,16,6.0,7.0,51,0.00,,,0.00,1007,weatherlink.com 1.10,2013-06-07 19:09:00,
2013-06-07 14:54:00,75.4,56.0,29.93,NNE,17,5.0,6.0,52,0.00,,,0.00,1028,weatherlink.com 1.10,2013-06-07 19:54:00,
2013-06-07 15:09:00,73.9,55.0,29.93,NE,36,1.0,5.0,52,0.00,,,0.00,221,weatherlink.com 1.10,2013-06-07 20:09:00,
2013-06-07 15:24:00,74.7,55.0,29.92,North,5,2.0,9.0,51,0.00,,,0.00,926,weatherlink.com 1.10,2013-06-07 20:24:00,
2013-06-07 15:39:00,75.3,51.0,29.92,North,360,1.0,9.0,43,0.00,,,0.00,840,weatherlink.com 1.10,2013-06-07 20:39:00,
2013-06-07 16:09:00,74.6,52.0,29.92,WNW,300,3.0,9.0,46,0.00,,,0.00,791,weatherlink.com 1.10,2013-06-07 21:09:00,
2013-06-07 16:39:00,75.5,52.0,29.91,NW,326,2.0,8.0,44,0.00,,,0.00,772,weatherlink.com 1.10,2013-06-07 21:39:00,
2013-06-07 16:54:00,75.8,51.0,29.91,NNW,333,2.0,7.0,42,0.00,,,0.00,137,weatherlink.com 1.10,2013-06-07 21:54:00,
2013-06-07 17:09:00,74.8,53.0,29.91,NNW,333,1.0,4.0,47,0.00,,,0.00,698,weatherlink.com 1.10,2013-06-07 22:09:00,
2013-06-07 17:24:00,74.6,52.0,29.90,NNW,340,0.0,6.0,45,0.00,,,0.00,638,weatherlink.com 1.10,2013-06-07 22:24:00,
2013-06-07 17:39:00,74.4,52.0,29.90,NNW,340,1.0,4.0,45,0.00,,,0.00,570,weatherlink.com 1.10,2013-06-07 22:39:00,
2013-06-07 18:09:00,75.0,52.0,29.89,NNW,340,0.0,4.0,44,0.00,,,0.00,455,weatherlink.com 1.10,2013-06-07 23:09:00,
2013-06-07 18:24:00,75.1,51.0,29.89,NNW,340,0.0,3.0,43,0.00,,,0.00,406,weatherlink.com 1.10,2013-06-07 23:24:00,
2013-06-07 18:39:00,74.1,53.0,29.89,NNW,346,0.0,4.0,48,0.00,,,0.00,353,weatherlink.com 1.10,2013-06-07 23:39:00,
2013-06-07 18:54:00,73.9,52.0,29.89,NNW,346,1.0,3.0,47,0.00,,,0.00,304,weatherlink.com 1.10,2013-06-07 23:54:00,
2013-06-07 19:09:00,73.4,52.0,29.88,NNW,346,1.0,4.0,48,0.00,,,0.00,253,weatherlink.com 1.10,2013-06-08 00:09:00,
2013-06-07 19:24:00,73.4,52.0,29.88,NNW,346,1.0,3.0,47,0.00,,,0.00,206,weatherlink.com 1.10,2013-06-08 00:24:00,
2013-06-07 19:39:00,73.4,52.0,29.88,NNW,346,0.0,3.0,48,0.00,,,0.00,149,weatherlink.com 1.10,2013-06-08 00:39:00,
2013-06-07 19:54:00,72.8,52.0,29.88,NNW,346,1.0,3.0,49,0.00,,,0.00,35,weatherlink.com 1.10,2013-06-08 00:54:00,
2013-06-07 20:09:00,72.2,52.0,29.88,NNW,346,0.0,0.0,50,0.00,,,0.00,28,weatherlink.com 1.10,2013-06-08 01:09:00,
2013-06-07 20:24:00,71.6,53.0,29.89,NNW,346,0.0,1.0,52,0.00,,,0.00,16,weatherlink.com 1.10,2013-06-08 01:24:00,
2013-06-07 20:39:00,70.7,53.0,29.89,NNW,346,0.0,0.0,53,0.00,,,0.00,5,weatherlink.com 1.10,2013-06-08 01:39:00,
2013-06-07 20:54:00,69.7,53.0,29.89,NNW,346,0.0,0.0,56,0.00,,,0.00,0,weatherlink.com 1.10,2013-06-08 01:54:00,
2013-06-07 21:09:00,68.5,53.0,29.89,NNW,346,0.0,0.0,58,0.00,,,0.00,0,weatherlink.com 1.10,2013-06-08 02:09:00,
2013-06-07 21:24:00,67.2,53.0,29.88,NNW,346,0.0,0.0,61,0.00,,,0.00,0,weatherlink.com 1.10,2013-06-08 02:24:00,
2013-06-07 21:39:00,66.0,54.0,29.88,NNW,346,0.0,1.0,65,0.00,,,0.00,0,weatherlink.com 1.10,2013-06-08 02:39:00,
2013-06-07 21:54:00,65.2,54.0,29.89,NNW,346,0.0,0.0,67,0.00,,,0.00,0,weatherlink.com 1.10,2013-06-08 02:54:00,
2013-06-07 22:09:00,64.4,54.0,29.90,NNW,346,0.0,1.0,69,0.00,,,0.00,0,weatherlink.com 1.10,2013-06-08 03:09:00,
2013-06-07 22:24:00,63.8,53.0,29.90,NNW,346,0.0,2.0,69,0.00,,,0.00,0,weatherlink.com 1.10,2013-06-08 03:24:00,
2013-06-07 22:39:00,63.5,54.0,29.91,NNW,346,0.0,1.0,70,0.00,,,0.00,0,weatherlink.com 1.10,2013-06-08 03:39:00,
2013-06-07 22:54:00,63.2,53.0,29.91,NNW,346,1.0,2.0,70,0.00,,,0.00,0,weatherlink.com 1.10,2013-06-08 03:54:00,
2013-06-07 23:09:00,62.9,53.0,29.92,NNW,346,0.0,0.0,71,0.00,,,0.00,0,weatherlink.com 1.10,2013-06-08 04:09:00,
2013-06-07 23:24:00,62.3,54.0,29.92,NNW,346,0.0,1.0,73,0.00,,,0.00,0,weatherlink.com 1.10,2013-06-08 04:24:00,
2013-06-07 23:39:00,61.6,53.0,29.92,NNW,346,0.0,2.0,74,0.00,,,0.00,0,weatherlink.com 1.10,2013-06-08 04:39:00,
2013-06-07 23:54:00,61.4,53.0,29.91,NNW,346,0.0,0.0,74,0.00,,,0.00,0,weatherlink.com 1.10,2013-06-08 04:54:00,